createdAt,value
2023-05-05T00:02:21.585Z,154.58
2023-05-05T00:05:30.845Z,154.02
2023-05-05T00:08:36.503Z,146.30
2023-05-05T00:11:43.100Z,143.74
2023-05-05T00:14:48.836Z,141.12
2023-05-05T00:17:55.259Z,139.90
2023-05-05T00:21:04.685Z,138.82
2023-05-05T00:24:11.850Z,131.01
2023-05-05T00:27:17.538Z,125.15
2023-05-05T00:30:24.558Z,122.20
2023-05-05T00:33:30.779Z,121.71
2023-05-05T00:36:40.249Z,111.33
2023-05-05T00:39:47.639Z,115.68
2023-05-05T00:42:54.323Z,124.28
2023-05-05T00:46:06.356Z,126.40
2023-05-05T00:49:13.799Z,125.46
2023-05-05T00:52:22.350Z,117.25
2023-05-05T00:55:29.057Z,120.61
2023-05-05T00:58:34.697Z,129.46
2023-05-05T01:01:41.435Z,125.85
2023-05-05T01:04:47.005Z,122.25
2023-05-05T01:08:26.959Z,123.50
2023-05-05T01:11:45.867Z,129.39
2023-05-05T01:15:04.437Z,129.98
2023-05-05T01:18:22.607Z,122.62
2023-05-05T01:21:36.529Z,118.79
2023-05-05T01:25:06.167Z,111.39
2023-05-05T01:28:31.077Z,106.03
2023-05-05T01:31:55.279Z,105.61
2023-05-05T01:35:07.444Z,104.08
2023-05-05T01:38:20.894Z,105.02
2023-05-05T01:41:33.899Z,109.59
2023-05-05T01:44:42.151Z,112.11
2023-05-05T01:47:52.381Z,109.12
2023-05-05T01:51:00.825Z,109.55
2023-05-05T01:54:11.590Z,97.71
2023-05-05T01:57:21.288Z,94.61
2023-05-05T02:00:30.649Z,100.60
2023-05-05T02:03:43.347Z,103.92
2023-05-05T02:06:53.387Z,113.10
2023-05-05T02:10:06.497Z,115.85
2023-05-05T02:13:15.712Z,123.70
2023-05-05T02:16:25.583Z,138.60
2023-05-05T02:19:42.662Z,154.88
2023-05-05T02:22:52.942Z,158.61
2023-05-05T02:26:06.513Z,146.76
2023-05-05T02:29:21.837Z,148.80
2023-05-05T02:32:36.760Z,156.98
2023-05-05T02:35:50.370Z,158.99
2023-05-05T02:39:03.850Z,136.06
2023-05-05T02:42:23.300Z,119.68
2023-05-05T02:45:32.041Z,125.04
2023-05-05T02:48:38.873Z,114.69
2023-05-05T02:51:47.295Z,112.57
2023-05-05T02:55:01.470Z,124.58
2023-05-05T02:58:27.333Z,114.28
2023-05-05T03:02:06.364Z,115.86
2023-05-05T03:05:22.073Z,114.13
2023-05-05T03:08:43.817Z,115.49
2023-05-05T03:12:02.469Z,114.57
2023-05-05T03:15:14.139Z,106.18
2023-05-05T03:18:24.306Z,104.84
2023-05-05T03:21:37.716Z,110.72
2023-05-05T03:24:53.457Z,117.27
2023-05-05T03:28:03.373Z,119.12
2023-05-05T03:31:09.450Z,120.96
2023-05-05T03:34:17.750Z,133.56
2023-05-05T03:37:26.444Z,140.92
2023-05-05T03:40:43.622Z,132.02
2023-05-05T03:43:53.089Z,143.05
2023-05-05T03:46:59.619Z,144.16
2023-05-05T03:50:09.677Z,141.86
2023-05-05T03:53:16.273Z,150.95
2023-05-05T03:56:25.524Z,157.69
2023-05-05T03:59:32.130Z,159.97
2023-05-05T04:02:37.964Z,146.55
2023-05-05T04:05:45.950Z,140.25
2023-05-05T04:08:55.157Z,131.18
2023-05-05T04:12:04.163Z,132.94
2023-05-05T04:15:11.697Z,130.95
2023-05-05T04:18:19.682Z,126.77
2023-05-05T04:21:25.916Z,125.23
2023-05-05T04:24:32.632Z,125.11
2023-05-05T04:27:41.044Z,114.10
2023-05-05T04:30:48.184Z,107.08
2023-05-05T04:33:54.116Z,120.33
2023-05-05T04:37:00.637Z,120.74
2023-05-05T04:40:07.098Z,115.24
2023-05-05T04:43:18.030Z,113.67
2023-05-05T04:46:23.866Z,110.26
2023-05-05T04:49:32.838Z,107.72
2023-05-05T04:52:38.802Z,115.99
2023-05-05T04:55:45.474Z,110.07
2023-05-05T04:58:53.997Z,111.64
2023-05-05T05:02:00.469Z,106.49
2023-05-05T05:05:06.960Z,105.76
2023-05-05T05:08:13.422Z,110.10
2023-05-05T05:11:19.271Z,110.11
2023-05-05T05:14:28.963Z,104.17
2023-05-05T05:17:34.931Z,111.08
2023-05-05T05:20:41.373Z,112.84
2023-05-05T05:23:47.823Z,116.09
2023-05-05T05:26:54.370Z,115.32
2023-05-05T05:30:05.353Z,109.93
2023-05-05T05:33:12.876Z,113.05
2023-05-05T05:36:19.494Z,110.16
2023-05-05T05:39:26.204Z,113.64
2023-05-05T05:42:32.348Z,109.59
2023-05-05T05:45:41.449Z,109.55
2023-05-05T05:48:47.714Z,113.08
2023-05-05T05:51:56.959Z,114.01
2023-05-05T05:55:03.460Z,107.85
2023-05-05T05:58:10.122Z,113.83
2023-05-05T06:01:18.900Z,110.19
2023-05-05T06:04:27.965Z,105.53
2023-05-05T06:07:33.992Z,105.56
2023-05-05T06:10:40.567Z,103.16
2023-05-05T06:13:50.962Z,103.25
2023-05-05T06:17:00.145Z,102.92
2023-05-05T06:20:09.449Z,104.12
2023-05-05T06:23:16.094Z,99.60
2023-05-05T06:26:28.711Z,98.67
2023-05-05T06:29:35.137Z,98.94
2023-05-05T06:32:43.521Z,93.09
2023-05-05T06:35:50.165Z,88.77
2023-05-05T06:38:55.776Z,80.72
2023-05-05T06:42:02.260Z,82.39
2023-05-05T06:45:09.550Z,83.59
2023-05-05T06:48:19.249Z,83.14
2023-05-05T06:51:25.315Z,78.00
2023-05-05T06:54:31.726Z,78.65
2023-05-05T06:57:39.170Z,83.67
2023-05-05T07:00:45.709Z,78.31
2023-05-05T07:03:54.457Z,77.03
2023-05-05T07:07:00.942Z,73.25
2023-05-05T07:10:07.939Z,77.55
2023-05-05T07:13:14.806Z,62.29
2023-05-05T07:16:20.538Z,57.38
2023-05-05T07:19:29.742Z,58.96
2023-05-05T07:22:35.610Z,60.49
2023-05-05T07:25:42.603Z,56.70
2023-05-05T07:28:48.333Z,60.30
2023-05-05T07:31:54.742Z,56.46
2023-05-05T07:35:03.027Z,50.97
2023-05-05T07:38:10.885Z,50.14
2023-05-05T07:41:16.757Z,47.83
2023-05-05T07:44:23.351Z,46.50
2023-05-05T07:47:29.034Z,49.30
2023-05-05T07:50:39.059Z,51.02
2023-05-05T07:53:44.861Z,44.84
2023-05-05T07:56:51.446Z,44.32
2023-05-05T07:59:57.050Z,42.32
2023-05-05T08:03:03.528Z,43.64
2023-05-05T08:06:16.277Z,38.33
2023-05-05T08:09:22.717Z,38.07
2023-05-05T08:12:28.492Z,35.00
2023-05-05T08:15:34.833Z,33.76
2023-05-05T08:18:40.683Z,33.60
2023-05-05T08:21:49.766Z,33.58
2023-05-05T08:24:56.000Z,34.44
2023-05-05T08:28:02.595Z,33.78
2023-05-05T08:31:08.935Z,34.18
2023-05-05T08:34:15.304Z,33.35
2023-05-05T08:37:23.632Z,29.62
2023-05-05T08:40:36.688Z,34.68
2023-05-05T08:43:42.620Z,38.46
2023-05-05T08:46:51.607Z,48.53
2023-05-05T08:50:00.050Z,35.52
2023-05-05T08:53:14.024Z,30.43
2023-05-05T08:56:24.429Z,77.64
2023-05-05T08:59:33.709Z,54.29
2023-05-05T09:02:40.798Z,54.62
2023-05-05T09:05:48.461Z,45.25
2023-05-05T09:08:59.459Z,41.79
2023-05-05T09:12:06.485Z,34.58
2023-05-05T09:15:14.622Z,38.99
2023-05-05T09:18:21.036Z,32.04
2023-05-05T09:21:29.551Z,31.53
2023-05-05T09:24:38.612Z,28.57
2023-05-05T09:27:48.447Z,27.08
2023-05-05T09:30:55.060Z,33.34
2023-05-05T09:34:01.308Z,46.51
2023-05-05T09:37:07.868Z,26.54
2023-05-05T09:40:18.691Z,27.74
2023-05-05T09:43:27.339Z,24.68
2023-05-05T09:46:33.380Z,24.94
2023-05-05T09:49:42.089Z,24.34
2023-05-05T09:52:58.694Z,23.47
2023-05-05T09:56:08.978Z,25.02
2023-05-05T09:59:15.103Z,27.77
2023-05-05T10:02:21.469Z,23.17
2023-05-05T10:05:27.197Z,22.99
2023-05-05T10:08:35.051Z,23.86
2023-05-05T10:11:47.955Z,33.01
2023-05-05T10:14:59.001Z,21.21
2023-05-05T10:18:09.265Z,21.70
2023-05-05T10:21:25.152Z,20.02
2023-05-05T10:24:42.991Z,19.85
2023-05-05T10:28:02.476Z,19.69
2023-05-05T10:31:25.833Z,22.31
2023-05-05T10:34:43.788Z,23.84
2023-05-05T10:37:51.351Z,22.29
2023-05-05T10:41:00.957Z,21.81
2023-05-05T10:44:11.138Z,21.68
2023-05-05T10:47:18.969Z,25.50
2023-05-05T10:50:41.911Z,21.51
2023-05-05T10:54:03.473Z,20.38
2023-05-05T10:57:14.999Z,19.98
2023-05-05T11:00:56.554Z,18.96
2023-05-05T11:04:27.148Z,18.32
2023-05-05T11:07:34.637Z,19.45
2023-05-05T11:10:47.930Z,18.78
2023-05-05T11:14:25.911Z,18.14
2023-05-05T11:17:49.533Z,17.00
2023-05-05T11:21:15.845Z,17.77
2023-05-05T11:24:32.225Z,16.30
2023-05-05T11:28:09.092Z,16.91
2023-05-05T11:31:27.036Z,16.66
2023-05-05T11:34:35.750Z,16.54
2023-05-05T11:37:42.507Z,17.14
2023-05-05T11:40:51.517Z,17.48
2023-05-05T11:44:15.685Z,19.70
2023-05-05T11:47:34.113Z,19.77
2023-05-05T11:50:41.029Z,19.33
2023-05-05T11:53:49.742Z,18.94
2023-05-05T11:56:57.403Z,17.81
2023-05-05T12:00:09.287Z,18.84
2023-05-05T12:03:18.031Z,19.55
2023-05-05T12:06:24.710Z,21.61
2023-05-05T12:09:30.977Z,18.47
2023-05-05T12:12:41.595Z,19.37
2023-05-05T12:15:47.392Z,18.16
2023-05-05T12:19:08.752Z,18.22
2023-05-05T12:22:21.547Z,18.85
2023-05-05T12:25:27.938Z,19.18
2023-05-05T12:28:48.045Z,18.39
2023-05-05T12:31:54.788Z,17.91
2023-05-05T12:35:03.868Z,18.63
2023-05-05T12:38:10.447Z,19.12
2023-05-05T12:41:22.622Z,19.21
2023-05-05T12:44:38.911Z,19.37
2023-05-05T12:47:45.140Z,19.61
2023-05-05T12:50:54.551Z,19.82
2023-05-05T12:54:10.777Z,20.86
2023-05-05T12:57:17.264Z,21.74
2023-05-05T13:00:26.211Z,22.57
2023-05-05T13:03:32.769Z,22.47
2023-05-05T13:06:42.864Z,23.48
2023-05-05T13:09:50.983Z,21.55
2023-05-05T13:12:59.546Z,21.56
2023-05-05T13:16:06.074Z,20.10
2023-05-05T13:19:11.940Z,20.89
2023-05-05T13:22:20.943Z,21.68
2023-05-05T13:25:27.064Z,20.45
2023-05-05T13:28:33.473Z,21.69
2023-05-05T13:31:39.207Z,22.00
2023-05-05T13:34:45.687Z,21.67
2023-05-05T13:37:53.920Z,21.35
2023-05-05T13:41:00.567Z,20.64
2023-05-05T13:44:06.192Z,20.33
2023-05-05T13:47:14.195Z,22.07
2023-05-05T13:50:19.876Z,20.81
2023-05-05T13:53:29.125Z,21.47
2023-05-05T13:56:34.857Z,20.39
2023-05-05T13:59:41.390Z,20.04
2023-05-05T14:02:47.235Z,20.68
2023-05-05T14:05:53.666Z,22.09
2023-05-05T14:09:02.019Z,21.00
2023-05-05T14:12:09.404Z,21.37
2023-05-05T14:15:15.529Z,20.78
2023-05-05T14:18:25.115Z,21.29
2023-05-05T14:21:31.915Z,20.50
2023-05-05T14:24:40.942Z,22.20
2023-05-05T14:27:46.704Z,21.41
2023-05-05T14:30:53.209Z,21.08
2023-05-05T14:33:58.998Z,20.22
2023-05-05T14:37:06.353Z,20.43
2023-05-05T14:40:15.239Z,19.66
2023-05-05T14:43:22.124Z,21.79
2023-05-05T14:46:28.171Z,21.36
2023-05-05T14:49:34.730Z,21.00
2023-05-05T14:52:40.868Z,20.99
2023-05-05T14:55:49.811Z,20.62
2023-05-05T14:58:56.087Z,19.92
2023-05-05T15:02:02.604Z,20.08
2023-05-05T15:05:10.697Z,23.85
2023-05-05T15:08:18.949Z,34.37
2023-05-05T15:11:27.280Z,20.39
2023-05-05T15:14:33.803Z,22.95
2023-05-05T15:17:42.024Z,22.10
2023-05-05T15:20:48.492Z,21.07
2023-05-05T15:23:54.196Z,27.81
2023-05-05T15:27:03.203Z,30.91
2023-05-05T15:30:14.277Z,22.90
2023-05-05T15:33:20.709Z,25.64
2023-05-05T15:36:26.424Z,22.38
2023-05-05T15:39:33.066Z,22.03
2023-05-05T15:42:41.457Z,21.96
2023-05-05T15:45:47.895Z,21.83
2023-05-05T15:48:53.673Z,22.23
2023-05-05T15:52:00.062Z,24.76
2023-05-05T15:55:07.118Z,21.50
2023-05-05T15:58:16.351Z,22.90
2023-05-05T16:01:22.088Z,23.99
2023-05-05T16:04:28.803Z,21.40
2023-05-05T16:07:34.405Z,22.26
2023-05-05T16:10:40.840Z,22.75
2023-05-05T16:13:49.130Z,22.75
2023-05-05T16:16:55.561Z,23.48
2023-05-05T16:20:03.202Z,23.80
2023-05-05T16:23:09.637Z,26.02
2023-05-05T16:26:15.282Z,26.06
2023-05-05T16:29:24.272Z,30.94
2023-05-05T16:32:30.004Z,26.92
2023-05-05T16:35:36.473Z,26.98
2023-05-05T16:38:44.054Z,28.79
2023-05-05T16:41:50.412Z,23.23
2023-05-05T16:44:58.645Z,25.85
2023-05-05T16:48:07.421Z,27.48
2023-05-05T16:51:14.806Z,27.77
2023-05-05T16:54:21.408Z,26.14
2023-05-05T16:57:27.272Z,23.17
2023-05-05T17:00:36.502Z,22.56
2023-05-05T17:03:42.445Z,25.50
2023-05-05T17:06:48.847Z,27.54
2023-05-05T17:09:54.420Z,26.30
2023-05-05T17:13:00.792Z,25.69
2023-05-05T17:16:09.403Z,25.37
2023-05-05T17:19:15.906Z,29.67
2023-05-05T17:22:21.982Z,35.29
2023-05-05T17:25:28.791Z,36.12
2023-05-05T17:28:34.403Z,31.53
2023-05-05T17:31:43.567Z,29.87
2023-05-05T17:34:49.204Z,29.18
2023-05-05T17:37:55.606Z,27.74
2023-05-05T17:41:01.375Z,25.64
2023-05-05T17:44:08.197Z,27.16
2023-05-05T17:47:16.405Z,25.63
2023-05-05T17:50:25.909Z,25.85
2023-05-05T17:53:31.891Z,27.59
2023-05-05T17:56:38.440Z,30.28
2023-05-05T17:59:44.043Z,30.23
2023-05-05T18:02:53.364Z,28.88
2023-05-05T18:05:59.060Z,27.31
2023-05-05T18:09:05.420Z,28.09
2023-05-05T18:12:11.453Z,32.70
2023-05-05T18:15:17.933Z,33.29
2023-05-05T18:18:26.573Z,34.73
2023-05-05T18:21:32.926Z,38.17
2023-05-05T18:24:38.509Z,40.53
2023-05-05T18:27:45.135Z,38.87
2023-05-05T18:30:50.741Z,37.14
2023-05-05T18:33:59.888Z,38.34
2023-05-05T18:37:05.559Z,39.65
2023-05-05T18:40:13.453Z,39.06
2023-05-05T18:43:19.107Z,44.54
2023-05-05T18:46:25.605Z,50.48
2023-05-05T18:49:33.834Z,49.26
2023-05-05T18:52:40.301Z,48.14
2023-05-05T18:55:47.316Z,51.06
2023-05-05T18:58:53.890Z,53.37
2023-05-05T19:02:00.965Z,56.01
2023-05-05T19:05:11.924Z,52.92
2023-05-05T19:08:18.086Z,50.82
2023-05-05T19:11:24.487Z,50.46
2023-05-05T19:14:30.029Z,49.68
2023-05-05T19:17:36.575Z,49.60
2023-05-05T19:20:47.417Z,52.52
2023-05-05T19:23:56.835Z,53.17
2023-05-05T19:27:03.179Z,51.62
2023-05-05T19:30:12.896Z,54.66
2023-05-05T19:33:19.246Z,50.67
2023-05-05T19:36:28.614Z,50.19
2023-05-05T19:39:34.339Z,54.88
2023-05-05T19:42:40.760Z,52.94
2023-05-05T19:45:46.409Z,52.96
2023-05-05T19:48:52.977Z,50.19
2023-05-05T19:52:01.238Z,51.06
2023-05-05T19:55:10.696Z,56.12
2023-05-05T19:58:16.405Z,57.97
2023-05-05T20:01:22.974Z,56.36
2023-05-05T20:04:28.785Z,57.23
2023-05-05T20:07:37.732Z,54.03
2023-05-05T20:10:43.463Z,52.31
2023-05-05T20:13:51.024Z,53.37
2023-05-05T20:16:56.845Z,51.71
2023-05-05T20:20:03.275Z,50.28
2023-05-05T20:23:11.511Z,52.72
2023-05-05T20:26:18.137Z,44.47
2023-05-05T20:29:24.026Z,55.88
2023-05-05T20:32:30.756Z,58.60
2023-05-05T20:35:37.317Z,61.87
2023-05-05T20:38:46.924Z,124.56
2023-05-05T20:41:52.699Z,85.50
2023-05-05T20:44:59.456Z,63.85
2023-05-05T20:48:05.549Z,62.04
2023-05-05T20:51:12.126Z,56.99
2023-05-05T20:54:20.876Z,57.71
2023-05-05T20:57:27.322Z,59.61
2023-05-05T21:00:33.118Z,62.00
2023-05-05T21:03:40.205Z,61.44
2023-05-05T21:06:46.183Z,73.14
2023-05-05T21:09:55.271Z,67.48
2023-05-05T21:13:00.840Z,64.17
2023-05-05T21:16:08.055Z,57.09
2023-05-05T21:19:13.602Z,55.30
2023-05-05T21:22:20.365Z,54.08
2023-05-05T21:25:30.829Z,52.07
2023-05-05T21:28:37.223Z,62.37
2023-05-05T21:31:44.284Z,105.61
2023-05-05T21:34:50.873Z,77.30
2023-05-05T21:37:56.471Z,54.11
2023-05-05T21:41:05.593Z,49.28
2023-05-05T21:44:11.393Z,61.20
2023-05-05T21:47:17.754Z,62.44
2023-05-05T21:50:23.437Z,52.57
2023-05-05T21:53:30.223Z,50.16
2023-05-05T21:56:39.506Z,48.79
2023-05-05T21:59:46.063Z,48.63
2023-05-05T22:02:51.779Z,48.52
2023-05-05T22:05:58.268Z,47.67
2023-05-05T22:09:04.095Z,47.77
2023-05-05T22:12:13.140Z,50.14
2023-05-05T22:15:20.162Z,52.39
2023-05-05T22:18:26.681Z,52.99
2023-05-05T22:21:32.620Z,55.67
2023-05-05T22:24:39.014Z,55.27
2023-05-05T22:27:47.329Z,56.00
2023-05-05T22:30:53.953Z,57.01
2023-05-05T22:33:59.730Z,60.38
2023-05-05T22:37:06.261Z,56.69
2023-05-05T22:40:15.780Z,56.01
2023-05-05T22:43:24.753Z,57.42
2023-05-05T22:46:30.453Z,53.86
2023-05-05T22:49:37.048Z,51.93
2023-05-05T22:52:42.832Z,56.98
2023-05-05T22:55:49.441Z,56.45
2023-05-05T22:58:57.623Z,52.72
2023-05-05T23:02:04.186Z,59.63
2023-05-05T23:05:11.333Z,66.96
2023-05-05T23:08:17.947Z,73.86
2023-05-05T23:11:23.688Z,69.47
2023-05-05T23:14:32.914Z,61.31
2023-05-05T23:17:39.607Z,58.24
2023-05-05T23:20:45.940Z,57.38
2023-05-05T23:23:51.676Z,60.76
2023-05-05T23:26:58.778Z,60.27
2023-05-05T23:30:07.945Z,62.87
2023-05-05T23:33:14.491Z,65.50
2023-05-05T23:36:20.245Z,64.13
2023-05-05T23:39:26.649Z,65.31
2023-05-05T23:42:32.357Z,65.45
2023-05-05T23:45:41.647Z,66.09
2023-05-05T23:48:47.406Z,66.06
2023-05-05T23:51:53.802Z,64.79
2023-05-05T23:54:59.390Z,65.53
2023-05-05T23:58:06.008Z,63.84
